createdAt,value
2023-01-08T00:01:44.719Z,22.53
2023-01-08T00:04:14.697Z,22.50
2023-01-08T00:06:44.175Z,22.51
2023-01-08T00:09:13.576Z,22.51
2023-01-08T00:11:43.929Z,22.50
2023-01-08T00:14:13.177Z,22.49
2023-01-08T00:16:42.777Z,22.47
2023-01-08T00:19:13.071Z,22.45
2023-01-08T00:21:42.341Z,22.45
2023-01-08T00:24:11.756Z,22.44
2023-01-08T00:26:41.092Z,22.42
2023-01-08T00:29:10.491Z,22.43
2023-01-08T00:31:39.770Z,22.41
2023-01-08T00:34:10.474Z,22.41
2023-01-08T00:36:41.693Z,22.40
2023-01-08T00:39:11.007Z,22.39
2023-01-08T00:41:40.298Z,22.38
2023-01-08T00:44:09.407Z,22.38
2023-01-08T00:46:38.477Z,22.37
2023-01-08T00:49:07.771Z,22.37
2023-01-08T00:51:36.943Z,22.35
2023-01-08T00:54:06.302Z,22.33
2023-01-08T00:56:35.554Z,22.33
2023-01-08T00:59:04.777Z,22.31
2023-01-08T01:01:34.057Z,22.32
2023-01-08T01:04:03.639Z,22.30
2023-01-08T01:06:32.819Z,22.28
2023-01-08T01:09:02.373Z,22.27
2023-01-08T01:11:31.916Z,22.28
2023-01-08T01:14:01.245Z,22.27
2023-01-08T01:16:30.595Z,22.29
2023-01-08T01:18:59.870Z,22.31
2023-01-08T01:21:29.781Z,22.34
2023-01-08T01:23:59.714Z,22.37
2023-01-08T01:26:29.047Z,22.39
2023-01-08T01:29:01.555Z,22.42
2023-01-08T01:31:31.239Z,22.45
2023-01-08T01:34:00.570Z,22.50
2023-01-08T01:36:29.759Z,22.55
2023-01-08T01:38:59.798Z,22.60
2023-01-08T01:41:33.063Z,22.62
2023-01-08T01:44:02.600Z,22.66
2023-01-08T01:46:36.126Z,22.71
2023-01-08T01:49:10.020Z,22.73
2023-01-08T01:51:39.194Z,22.76
2023-01-08T01:54:09.346Z,22.81
2023-01-08T01:56:38.719Z,22.85
2023-01-08T01:59:08.027Z,22.88
2023-01-08T02:01:37.380Z,22.91
2023-01-08T02:04:07.499Z,22.95
2023-01-08T02:06:37.848Z,22.99
2023-01-08T02:09:08.750Z,23.01
2023-01-08T02:11:39.757Z,23.07
2023-01-08T02:14:09.996Z,23.10
2023-01-08T02:16:40.622Z,23.14
2023-01-08T02:19:20.464Z,23.18
2023-01-08T02:21:51.111Z,23.21
2023-01-08T02:24:24.742Z,23.26
2023-01-08T02:26:54.348Z,23.29
2023-01-08T02:29:24.671Z,23.32
2023-01-08T02:31:53.893Z,23.36
2023-01-08T02:34:23.150Z,23.39
2023-01-08T02:36:55.289Z,23.42
2023-01-08T02:39:29.392Z,23.43
2023-01-08T02:42:00.115Z,23.41
2023-01-08T02:44:30.707Z,23.42
2023-01-08T02:47:00.179Z,23.42
2023-01-08T02:49:30.778Z,23.42
2023-01-08T02:52:01.553Z,23.42
2023-01-08T02:54:31.255Z,23.41
2023-01-08T02:57:05.084Z,23.41
2023-01-08T02:59:34.626Z,23.41
2023-01-08T03:02:04.205Z,23.41
2023-01-08T03:04:34.736Z,23.40
2023-01-08T03:07:04.183Z,23.40
2023-01-08T03:09:33.375Z,23.39
2023-01-08T03:12:04.279Z,23.38
2023-01-08T03:14:40.711Z,23.37
2023-01-08T03:17:14.214Z,23.37
2023-01-08T03:19:44.812Z,23.35
2023-01-08T03:22:14.462Z,23.36
2023-01-08T03:24:43.639Z,23.36
2023-01-08T03:27:13.960Z,23.35
2023-01-08T03:29:43.210Z,23.34
2023-01-08T03:32:13.637Z,23.34
2023-01-08T03:34:43.067Z,23.34
2023-01-08T03:37:12.357Z,23.33
2023-01-08T03:39:46.329Z,23.33
2023-01-08T03:42:15.677Z,23.31
2023-01-08T03:44:44.881Z,23.31
2023-01-08T03:47:14.478Z,23.31
2023-01-08T03:49:44.058Z,23.29
2023-01-08T03:52:14.932Z,23.28
2023-01-08T03:54:44.242Z,23.27
2023-01-08T03:57:13.699Z,23.27
2023-01-08T03:59:42.793Z,23.26
2023-01-08T04:02:12.103Z,23.25
2023-01-08T04:04:41.506Z,23.23
2023-01-08T04:07:11.910Z,23.23
2023-01-08T04:09:41.018Z,23.21
2023-01-08T04:12:10.185Z,23.20
2023-01-08T04:14:39.501Z,23.19
2023-01-08T04:17:10.086Z,23.18
2023-01-08T04:19:39.349Z,23.17
2023-01-08T04:22:08.635Z,23.15
2023-01-08T04:24:37.987Z,23.13
2023-01-08T04:27:07.376Z,23.11
2023-01-08T04:29:36.635Z,23.10
2023-01-08T04:32:06.054Z,23.10
2023-01-08T04:34:35.300Z,23.12
2023-01-08T04:37:04.582Z,23.15
2023-01-08T04:39:33.887Z,23.17
2023-01-08T04:42:03.623Z,23.19
2023-01-08T04:44:32.912Z,23.20
2023-01-08T04:47:02.407Z,23.23
2023-01-08T04:49:31.765Z,23.26
2023-01-08T04:52:01.530Z,23.29
2023-01-08T04:54:30.836Z,23.31
2023-01-08T04:57:00.134Z,23.33
2023-01-08T04:59:29.832Z,23.35
2023-01-08T05:01:59.376Z,23.39
2023-01-08T05:04:32.536Z,23.40
2023-01-08T05:07:22.514Z,23.44
2023-01-08T05:09:51.625Z,23.47
2023-01-08T05:12:20.955Z,23.51
2023-01-08T05:14:50.221Z,23.53
2023-01-08T05:17:22.517Z,23.56
2023-01-08T05:19:51.776Z,23.58
2023-01-08T05:22:21.110Z,23.63
2023-01-08T05:24:50.307Z,23.65
2023-01-08T05:27:19.916Z,23.68
2023-01-08T05:29:49.124Z,23.70
2023-01-08T05:32:18.762Z,23.73
2023-01-08T05:34:48.183Z,23.76
2023-01-08T05:37:17.794Z,23.80
2023-01-08T05:39:47.151Z,23.86
2023-01-08T05:42:16.678Z,23.90
2023-01-08T05:44:46.291Z,23.95
2023-01-08T05:47:15.468Z,23.97
2023-01-08T05:49:44.753Z,24.00
2023-01-08T05:52:14.072Z,24.04
2023-01-08T05:54:43.299Z,24.09
2023-01-08T05:57:12.715Z,24.14
2023-01-08T05:59:42.006Z,24.16
2023-01-08T06:02:11.352Z,24.20
2023-01-08T06:04:40.795Z,24.22
2023-01-08T06:07:10.132Z,24.27
2023-01-08T06:09:39.380Z,24.33
2023-01-08T06:12:09.072Z,24.36
2023-01-08T06:14:40.312Z,24.39
2023-01-08T06:17:09.472Z,24.42
2023-01-08T06:19:40.363Z,24.45
2023-01-08T06:22:09.681Z,24.46
2023-01-08T06:24:38.936Z,24.50
2023-01-08T06:27:08.344Z,24.52
2023-01-08T06:29:37.564Z,24.55
2023-01-08T06:32:06.834Z,24.59
2023-01-08T06:34:36.160Z,24.64
2023-01-08T06:37:05.391Z,24.66
2023-01-08T06:39:34.607Z,24.70
2023-01-08T06:42:03.991Z,24.71
2023-01-08T06:44:33.286Z,24.72
2023-01-08T06:47:04.488Z,24.75
2023-01-08T06:49:33.412Z,24.79
2023-01-08T06:52:06.523Z,24.81
2023-01-08T06:54:35.741Z,24.82
2023-01-08T06:57:08.773Z,24.84
2023-01-08T06:59:38.016Z,24.87
2023-01-08T07:02:07.398Z,24.89
2023-01-08T07:04:36.751Z,24.92
2023-01-08T07:07:06.399Z,24.95
2023-01-08T07:09:36.080Z,24.99
2023-01-08T07:12:05.576Z,25.01
2023-01-08T07:14:35.160Z,25.04
2023-01-08T07:17:04.493Z,25.06
2023-01-08T07:19:33.996Z,25.08
2023-01-08T07:22:03.375Z,25.10
2023-01-08T07:24:32.524Z,25.12
2023-01-08T07:27:01.871Z,25.14
2023-01-08T07:29:31.128Z,25.18
2023-01-08T07:32:00.392Z,25.20
2023-01-08T07:34:29.727Z,25.23
2023-01-08T07:36:59.520Z,25.23
2023-01-08T07:39:29.544Z,25.25
2023-01-08T07:41:59.645Z,25.26
2023-01-08T07:44:29.446Z,25.28
2023-01-08T07:46:59.917Z,25.30
2023-01-08T07:49:30.109Z,25.31
2023-01-08T07:51:59.565Z,25.33
2023-01-08T07:54:29.507Z,25.34
2023-01-08T07:56:59.886Z,25.37
2023-01-08T07:59:29.515Z,25.38
2023-01-08T08:01:58.803Z,25.40
2023-01-08T08:04:28.249Z,25.43
2023-01-08T08:07:00.161Z,25.45
2023-01-08T08:09:29.509Z,25.45
2023-01-08T08:11:59.599Z,25.47
2023-01-08T08:14:29.506Z,25.48
2023-01-08T08:16:59.531Z,25.50
2023-01-08T08:19:28.895Z,25.52
2023-01-08T08:21:58.696Z,25.53
2023-01-08T08:24:28.728Z,25.53
2023-01-08T08:26:58.936Z,25.54
2023-01-08T08:29:28.785Z,25.58
2023-01-08T08:31:58.905Z,25.58
2023-01-08T08:34:28.881Z,25.60
2023-01-08T08:36:58.801Z,25.61
2023-01-08T08:39:28.735Z,25.62
2023-01-08T08:41:58.825Z,25.64
2023-01-08T08:44:28.787Z,25.64
2023-01-08T08:46:58.837Z,25.68
2023-01-08T08:49:28.264Z,25.69
2023-01-08T08:51:57.822Z,25.70
2023-01-08T08:54:27.931Z,25.70
2023-01-08T08:56:58.139Z,25.71
2023-01-08T08:59:27.887Z,25.73
2023-01-08T09:01:58.053Z,25.75
2023-01-08T09:04:28.118Z,25.77
2023-01-08T09:06:57.960Z,25.79
2023-01-08T09:09:27.952Z,25.79
2023-01-08T09:11:58.057Z,25.79
2023-01-08T09:14:27.910Z,25.81
2023-01-08T09:16:58.008Z,25.83
2023-01-08T09:19:28.014Z,25.85
2023-01-08T09:21:58.292Z,25.85
2023-01-08T09:24:28.225Z,25.88
2023-01-08T09:27:00.682Z,25.88
2023-01-08T09:29:30.069Z,25.89
2023-01-08T09:32:01.180Z,25.90
2023-01-08T09:34:32.123Z,25.91
2023-01-08T09:37:01.372Z,25.93
2023-01-08T09:39:30.668Z,25.94
2023-01-08T09:42:00.475Z,25.95
2023-01-08T09:44:30.057Z,25.96
2023-01-08T09:46:59.352Z,25.98
2023-01-08T09:49:30.409Z,25.99
2023-01-08T09:52:00.533Z,25.97
2023-01-08T09:54:29.761Z,26.00
2023-01-08T09:57:00.155Z,26.01
2023-01-08T09:59:29.900Z,26.02
2023-01-08T10:01:59.275Z,26.03
2023-01-08T10:04:29.143Z,26.04
2023-01-08T10:07:06.008Z,26.05
2023-01-08T10:09:35.214Z,26.07
2023-01-08T10:12:04.635Z,26.08
2023-01-08T10:14:35.250Z,26.09
2023-01-08T10:17:11.579Z,26.11
2023-01-08T10:19:39.964Z,26.12
2023-01-08T10:22:16.754Z,26.09
2023-01-08T10:24:46.285Z,26.03
2023-01-08T10:27:16.742Z,25.98
2023-01-08T10:29:45.907Z,25.93
2023-01-08T10:32:21.985Z,25.90
2023-01-08T10:34:56.140Z,25.87
2023-01-08T10:37:29.173Z,25.81
2023-01-08T10:40:00.402Z,25.78
2023-01-08T10:42:29.988Z,25.75
2023-01-08T10:45:01.626Z,25.71
2023-01-08T10:47:31.503Z,25.68
2023-01-08T10:50:00.860Z,25.64
2023-01-08T10:52:32.824Z,25.62
2023-01-08T10:55:16.005Z,25.58
2023-01-08T10:57:45.345Z,25.55
2023-01-08T11:00:24.542Z,25.52
2023-01-08T11:02:53.847Z,25.50
2023-01-08T11:05:24.242Z,25.46
2023-01-08T11:07:57.926Z,25.42
2023-01-08T11:10:27.577Z,25.40
2023-01-08T11:12:58.874Z,25.37
2023-01-08T11:15:29.829Z,25.34
2023-01-08T11:18:17.630Z,25.31
2023-01-08T11:20:49.285Z,25.28
2023-01-08T11:23:19.278Z,25.25
2023-01-08T11:26:07.650Z,25.22
2023-01-08T11:28:47.610Z,25.20
2023-01-08T11:34:11.912Z,25.11
2023-01-08T11:36:42.585Z,25.07
2023-01-08T11:39:11.732Z,25.05
2023-01-08T11:41:42.282Z,25.02
2023-01-08T11:44:16.141Z,24.98
2023-01-08T11:46:55.869Z,24.96
2023-01-08T11:49:32.637Z,24.93
2023-01-08T11:52:19.793Z,24.89
2023-01-08T11:54:56.541Z,24.86
2023-01-08T11:57:31.013Z,24.83
2023-01-08T12:00:08.853Z,24.79
2023-01-08T12:02:42.405Z,24.76
2023-01-08T12:05:48.751Z,24.72
2023-01-08T12:08:22.768Z,24.70
2023-01-08T12:10:56.559Z,24.65
2023-01-08T12:13:29.867Z,24.63
2023-01-08T12:16:10.151Z,24.59
2023-01-08T12:18:57.319Z,24.56
2023-01-08T12:21:28.080Z,24.53
2023-01-08T12:24:13.167Z,24.49
2023-01-08T12:26:46.607Z,24.46
2023-01-08T12:29:17.372Z,24.43
2023-01-08T12:32:05.640Z,24.40
2023-01-08T12:34:38.763Z,24.37
2023-01-08T12:37:15.739Z,24.34
2023-01-08T12:39:57.052Z,24.31
2023-01-08T12:42:27.044Z,24.27
2023-01-08T12:44:57.101Z,24.24
2023-01-08T12:47:27.583Z,24.18
2023-01-08T12:49:59.055Z,24.19
2023-01-08T12:52:31.353Z,24.17
2023-01-08T12:55:05.175Z,24.13
2023-01-08T12:57:35.741Z,24.09
2023-01-08T13:00:09.717Z,24.06
2023-01-08T13:02:40.356Z,24.03
2023-01-08T13:05:19.965Z,24.00
2023-01-08T13:07:49.950Z,23.98
2023-01-08T13:10:38.341Z,23.96
2023-01-08T13:13:07.952Z,23.93
2023-01-08T13:15:37.147Z,23.90
2023-01-08T13:18:09.955Z,23.86
2023-01-08T13:20:39.246Z,23.83
2023-01-08T13:23:08.603Z,23.81
2023-01-08T13:25:38.242Z,23.80
2023-01-08T13:28:20.482Z,23.78
2023-01-08T13:30:50.934Z,23.74
2023-01-08T13:33:40.571Z,23.69
2023-01-08T13:36:11.151Z,23.67
2023-01-08T13:38:40.692Z,23.65
2023-01-08T13:41:26.796Z,23.62
2023-01-08T13:44:06.187Z,23.60
2023-01-08T13:46:37.036Z,23.58
2023-01-08T13:49:10.016Z,23.54
2023-01-08T13:51:43.731Z,23.52
2023-01-08T13:54:17.562Z,23.48
2023-01-08T13:56:47.462Z,23.46
2023-01-08T13:59:20.836Z,23.46
2023-01-08T14:01:57.068Z,23.41
2023-01-08T14:04:26.703Z,23.40
2023-01-08T14:06:56.065Z,23.36
2023-01-08T14:09:25.637Z,23.35
2023-01-08T14:14:45.416Z,23.31
2023-01-08T14:17:17.519Z,23.28
2023-01-08T14:19:46.827Z,23.26
2023-01-08T14:22:22.657Z,23.23
2023-01-08T14:24:53.347Z,23.22
2023-01-08T14:27:29.905Z,23.23
2023-01-08T14:29:59.995Z,23.24
2023-01-08T14:32:33.542Z,23.26
2023-01-08T14:35:02.914Z,23.28
2023-01-08T14:37:32.099Z,23.33
2023-01-08T14:40:01.578Z,23.35
2023-01-08T14:42:45.331Z,23.38
2023-01-08T14:45:21.931Z,23.39
2023-01-08T14:47:51.696Z,23.43
2023-01-08T14:50:22.280Z,23.44
2023-01-08T14:52:54.755Z,23.49
2023-01-08T14:55:24.038Z,23.53
2023-01-08T14:57:54.542Z,23.55
2023-01-08T15:00:30.468Z,23.59
2023-01-08T15:03:00.214Z,23.62
2023-01-08T15:05:33.400Z,23.63
2023-01-08T15:08:06.119Z,23.66
2023-01-08T15:10:37.025Z,23.64
2023-01-08T15:13:07.722Z,23.67
2023-01-08T15:15:37.100Z,23.70
2023-01-08T15:18:07.271Z,23.74
2023-01-08T15:20:36.639Z,23.76
2023-01-08T15:23:05.951Z,23.80
2023-01-08T15:25:35.444Z,23.83
2023-01-08T15:28:05.170Z,23.86
2023-01-08T15:30:38.449Z,23.89
2023-01-08T15:33:11.595Z,23.91
2023-01-08T15:35:43.944Z,23.95
2023-01-08T15:38:16.293Z,23.97
2023-01-08T15:40:45.743Z,24.00
2023-01-08T15:43:16.297Z,24.03
2023-01-08T15:45:49.188Z,24.05
2023-01-08T15:48:18.542Z,24.04
2023-01-08T15:50:47.773Z,24.02
2023-01-08T15:53:20.362Z,24.02
2023-01-08T15:55:51.696Z,24.00
2023-01-08T15:58:20.214Z,23.98
2023-01-08T16:00:49.425Z,23.98
2023-01-08T16:03:18.769Z,23.96
2023-01-08T16:05:48.036Z,23.95
2023-01-08T16:08:17.289Z,23.95
2023-01-08T16:10:46.917Z,23.93
2023-01-08T16:13:16.197Z,23.92
2023-01-08T16:15:45.393Z,23.91
2023-01-08T16:18:14.676Z,23.90
2023-01-08T16:20:43.943Z,23.88
2023-01-08T16:23:15.649Z,23.86
2023-01-08T16:25:45.207Z,23.85
2023-01-08T16:28:14.756Z,23.84
2023-01-08T16:30:44.919Z,23.83
2023-01-08T16:33:16.402Z,23.83
2023-01-08T16:35:45.301Z,23.83
2023-01-08T16:38:14.957Z,23.82
2023-01-08T16:40:44.480Z,23.82
2023-01-08T16:43:13.682Z,23.81
2023-01-08T16:45:44.354Z,23.80
2023-01-08T16:48:14.074Z,23.78
2023-01-08T16:50:43.424Z,23.76
2023-01-08T16:53:12.514Z,23.75
2023-01-08T16:55:42.147Z,23.73
2023-01-08T16:58:11.393Z,23.72
2023-01-08T17:00:40.614Z,23.72
2023-01-08T17:03:09.865Z,23.71
2023-01-08T17:05:39.071Z,23.69
2023-01-08T17:08:09.277Z,23.71
2023-01-08T17:10:40.610Z,23.67
2023-01-08T17:13:09.872Z,23.66
2023-01-08T17:15:39.062Z,23.64
2023-01-08T17:18:08.352Z,23.64
2023-01-08T17:20:37.539Z,23.62
2023-01-08T17:23:06.856Z,23.62
2023-01-08T17:25:36.261Z,23.61
2023-01-08T17:28:05.577Z,23.58
2023-01-08T17:30:34.917Z,23.59
2023-01-08T17:33:04.677Z,23.58
2023-01-08T17:35:33.938Z,23.56
2023-01-08T17:38:03.191Z,23.55
2023-01-08T17:40:32.584Z,23.54
2023-01-08T17:43:02.082Z,23.53
2023-01-08T17:45:31.372Z,23.51
2023-01-08T17:48:01.381Z,23.50
2023-01-08T17:50:31.303Z,23.42
2023-01-08T17:53:01.394Z,23.46
2023-01-08T17:55:31.503Z,23.46
2023-01-08T17:58:01.351Z,23.44
2023-01-08T18:00:31.356Z,23.41
2023-01-08T18:03:04.968Z,23.43
2023-01-08T18:05:34.344Z,23.43
2023-01-08T18:08:03.643Z,23.48
2023-01-08T18:10:32.992Z,23.49
2023-01-08T18:13:02.285Z,23.53
2023-01-08T18:15:31.572Z,23.55
2023-01-08T18:18:01.918Z,23.58
2023-01-08T18:20:31.821Z,23.60
2023-01-08T18:23:01.367Z,23.62
2023-01-08T18:25:30.968Z,23.65
2023-01-08T18:28:00.475Z,23.67
2023-01-08T18:30:31.730Z,23.71
2023-01-08T18:33:00.982Z,23.74
2023-01-08T18:35:32.971Z,23.78
2023-01-08T18:38:02.281Z,23.81
2023-01-08T18:40:31.816Z,23.80
2023-01-08T18:43:01.398Z,23.80
2023-01-08T18:45:31.944Z,23.79
2023-01-08T18:48:01.543Z,23.79
2023-01-08T18:50:30.822Z,23.78
2023-01-08T18:53:00.565Z,23.78
2023-01-08T18:55:30.703Z,23.77
2023-01-08T18:58:00.536Z,23.77
2023-01-08T19:00:29.691Z,23.72
2023-01-08T19:02:59.797Z,23.75
2023-01-08T19:05:29.718Z,23.76
2023-01-08T19:07:59.711Z,23.74
2023-01-08T19:10:29.696Z,23.75
2023-01-08T19:12:59.733Z,23.74
2023-01-08T19:15:29.698Z,23.74
2023-01-08T19:18:01.045Z,23.74
2023-01-08T19:20:30.632Z,23.75
2023-01-08T19:23:00.570Z,23.74
2023-01-08T19:25:33.681Z,23.73
2023-01-08T19:28:02.941Z,23.73
2023-01-08T19:30:32.149Z,23.72
2023-01-08T19:33:01.398Z,23.72
2023-01-08T19:35:31.548Z,23.72
2023-01-08T19:38:01.966Z,23.71
2023-01-08T19:40:31.866Z,23.71
2023-01-08T19:43:20.457Z,23.67
2023-01-08T19:45:49.652Z,23.68
2023-01-08T19:48:19.523Z,23.68
2023-01-08T19:50:49.399Z,23.68
2023-01-08T19:53:18.874Z,23.68
2023-01-08T19:55:48.014Z,23.68
2023-01-08T19:58:18.649Z,23.68
2023-01-08T20:00:47.852Z,23.67
2023-01-08T20:03:18.469Z,23.68
2023-01-08T20:05:47.671Z,23.68
2023-01-08T20:08:17.245Z,23.67
2023-01-08T20:10:46.606Z,23.66
2023-01-08T20:13:16.238Z,23.67
2023-01-08T20:15:45.366Z,23.66
2023-01-08T20:18:15.050Z,23.66
2023-01-08T20:21:03.193Z,23.65
2023-01-08T20:23:32.743Z,23.66
2023-01-08T20:26:06.740Z,23.65
2023-01-08T20:28:36.229Z,23.65
2023-01-08T20:31:09.190Z,23.65
2023-01-08T20:33:38.543Z,23.65
2023-01-08T20:36:11.351Z,23.64
2023-01-08T20:38:40.524Z,23.65
2023-01-08T20:41:09.806Z,23.64
2023-01-08T20:43:40.372Z,23.63
2023-01-08T20:46:10.835Z,23.64
2023-01-08T20:48:47.056Z,23.63
2023-01-08T20:51:10.778Z,23.62
2023-01-08T20:53:40.011Z,23.62
2023-01-08T20:56:10.503Z,23.61
2023-01-08T20:58:40.061Z,23.62
2023-01-08T21:01:10.007Z,23.62
2023-01-08T21:03:39.355Z,23.61
2023-01-08T21:06:09.168Z,23.63
2023-01-08T21:08:38.406Z,23.60
2023-01-08T21:11:07.802Z,23.61
2023-01-08T21:13:36.987Z,23.61
2023-01-08T21:16:07.126Z,23.62
2023-01-08T21:18:36.441Z,23.61
2023-01-08T21:21:06.105Z,23.61
2023-01-08T21:23:35.398Z,23.62
2023-01-08T21:26:05.506Z,23.61
2023-01-08T21:28:34.696Z,23.61
2023-01-08T21:31:16.496Z,23.62
2023-01-08T21:33:47.759Z,23.62
2023-01-08T21:36:17.663Z,23.62
2023-01-08T21:38:46.902Z,23.61
2023-01-08T21:41:34.342Z,23.62
2023-01-08T21:44:21.162Z,23.62
2023-01-08T21:46:50.335Z,23.62
2023-01-08T21:49:19.624Z,23.62
2023-01-08T21:52:06.314Z,23.62
2023-01-08T21:54:35.534Z,23.62
2023-01-08T21:57:04.905Z,23.63
2023-01-08T21:59:34.316Z,23.63
2023-01-08T22:02:03.639Z,23.64
2023-01-08T22:04:32.915Z,23.64
2023-01-08T22:07:02.253Z,23.64
2023-01-08T22:09:32.092Z,23.65
2023-01-08T22:12:02.034Z,23.65
2023-01-08T22:14:31.858Z,23.64
2023-01-08T22:17:03.353Z,23.68
2023-01-08T22:19:32.669Z,23.67
2023-01-08T22:22:01.939Z,23.68
2023-01-08T22:24:31.972Z,23.69
2023-01-08T22:27:02.070Z,23.69
2023-01-08T22:29:31.954Z,23.71
2023-01-08T22:32:04.830Z,23.71
2023-01-08T22:34:34.323Z,23.72
2023-01-08T22:37:03.532Z,23.74
2023-01-08T22:39:32.875Z,23.73
2023-01-08T22:42:02.247Z,23.74
2023-01-08T22:44:31.941Z,23.75
2023-01-08T22:47:03.519Z,23.74
2023-01-08T22:49:36.561Z,23.75
2023-01-08T22:52:05.805Z,23.76
2023-01-08T22:54:34.994Z,23.76
2023-01-08T22:57:04.409Z,23.78
2023-01-08T23:02:24.036Z,23.78
2023-01-08T23:04:53.298Z,23.79
2023-01-08T23:07:22.501Z,23.80
2023-01-08T23:09:51.675Z,23.79
2023-01-08T23:12:24.053Z,23.80
2023-01-08T23:14:53.259Z,23.80
2023-01-08T23:17:22.550Z,23.81
2023-01-08T23:19:51.806Z,23.81
2023-01-08T23:22:21.057Z,23.81
2023-01-08T23:24:50.367Z,23.81
2023-01-08T23:27:19.547Z,23.80
2023-01-08T23:29:48.670Z,23.81
2023-01-08T23:32:17.948Z,23.79
2023-01-08T23:34:47.182Z,23.78
2023-01-08T23:37:16.463Z,23.79
2023-01-08T23:39:47.976Z,23.79
2023-01-08T23:42:17.082Z,23.78
2023-01-08T23:44:46.162Z,23.78
2023-01-08T23:47:15.447Z,23.77
2023-01-08T23:49:44.753Z,23.77
2023-01-08T23:52:14.033Z,23.77
2023-01-08T23:54:43.354Z,23.75
2023-01-08T23:57:12.652Z,23.75
2023-01-08T23:59:41.896Z,23.74
